sensor_id;sensor_type;location;lat;lon;timestamp;P1;durP1;ratioP1;P2;durP2;ratioP2
70866;SDS011;58487;53.474;49.470;2023-03-31T00:00:15;8.43;;;2.30;;
70866;SDS011;58487;53.474;49.470;2023-03-31T00:02:41;6.30;;;3.03;;
70866;SDS011;58487;53.474;49.470;2023-03-31T00:05:07;7.32;;;2.40;;
70866;SDS011;58487;53.474;49.470;2023-03-31T00:07:34;7.43;;;2.10;;
70866;SDS011;58487;53.474;49.470;2023-03-31T00:10:03;10.83;;;2.57;;
70866;SDS011;58487;53.474;49.470;2023-03-31T00:12:30;6.18;;;2.40;;
70866;SDS011;58487;53.474;49.470;2023-03-31T00:14:56;9.50;;;2.40;;
70866;SDS011;58487;53.474;49.470;2023-03-31T00:17:22;8.43;;;2.35;;
70866;SDS011;58487;53.474;49.470;2023-03-31T00:19:48;9.45;;;2.10;;
70866;SDS011;58487;53.474;49.470;2023-03-31T00:22:15;7.40;;;2.30;;
70866;SDS011;58487;53.474;49.470;2023-03-31T00:24:49;6.65;;;2.17;;
70866;SDS011;58487;53.474;49.470;2023-03-31T00:27:15;8.10;;;2.25;;
70866;SDS011;58487;53.474;49.470;2023-03-31T00:29:41;7.85;;;2.05;;
70866;SDS011;58487;53.474;49.470;2023-03-31T00:32:07;8.65;;;2.60;;
70866;SDS011;58487;53.474;49.470;2023-03-31T00:34:33;5.37;;;2.27;;
70866;SDS011;58487;53.474;49.470;2023-03-31T00:36:59;6.20;;;2.22;;
70866;SDS011;58487;53.474;49.470;2023-03-31T00:39:27;5.75;;;1.88;;
70866;SDS011;58487;53.474;49.470;2023-03-31T00:42:03;5.80;;;2.20;;
70866;SDS011;58487;53.474;49.470;2023-03-31T00:44:38;8.60;;;2.50;;
70866;SDS011;58487;53.474;49.470;2023-03-31T00:47:44;7.17;;;2.47;;
70866;SDS011;58487;53.474;49.470;2023-03-31T00:50:14;7.10;;;2.20;;
70866;SDS011;58487;53.474;49.470;2023-03-31T00:52:50;6.20;;;2.20;;
70866;SDS011;58487;53.474;49.470;2023-03-31T00:55:22;7.95;;;2.17;;
70866;SDS011;58487;53.474;49.470;2023-03-31T00:57:52;4.05;;;1.60;;
70866;SDS011;58487;53.474;49.470;2023-03-31T01:00:19;5.67;;;1.97;;
70866;SDS011;58487;53.474;49.470;2023-03-31T01:02:50;5.82;;;2.67;;
70866;SDS011;58487;53.474;49.470;2023-03-31T01:05:27;6.15;;;2.30;;
70866;SDS011;58487;53.474;49.470;2023-03-31T01:08:04;7.75;;;1.85;;
70866;SDS011;58487;53.474;49.470;2023-03-31T01:10:32;5.00;;;1.70;;
70866;SDS011;58487;53.474;49.470;2023-03-31T01:13:09;4.87;;;1.43;;
70866;SDS011;58487;53.474;49.470;2023-03-31T01:15:37;4.78;;;2.03;;
70866;SDS011;58487;53.474;49.470;2023-03-31T01:18:04;7.85;;;1.90;;
70866;SDS011;58487;53.474;49.470;2023-03-31T01:20:36;5.50;;;2.08;;
70866;SDS011;58487;53.474;49.470;2023-03-31T01:23:41;5.63;;;2.08;;
70866;SDS011;58487;53.474;49.470;2023-03-31T01:35:18;8.63;;;2.15;;
70866;SDS011;58487;53.474;49.470;2023-03-31T01:46:40;6.88;;;1.90;;
70866;SDS011;58487;53.474;49.470;2023-03-31T01:51:59;4.50;;;1.65;;
70866;SDS011;58487;53.474;49.470;2023-03-31T01:57:33;4.47;;;1.70;;
70866;SDS011;58487;53.474;49.470;2023-03-31T02:00:07;8.50;;;2.28;;
70866;SDS011;58487;53.474;49.470;2023-03-31T02:02:37;5.50;;;2.00;;
70866;SDS011;58487;53.474;49.470;2023-03-31T02:05:22;4.35;;;1.80;;
70866;SDS011;58487;53.474;49.470;2023-03-31T02:07:57;8.33;;;2.10;;
70866;SDS011;58487;53.474;49.470;2023-03-31T02:10:46;5.53;;;1.85;;
70866;SDS011;58487;53.474;49.470;2023-03-31T02:13:14;5.30;;;2.38;;
70866;SDS011;58487;53.474;49.470;2023-03-31T02:15:43;6.82;;;2.08;;
70866;SDS011;58487;53.474;49.470;2023-03-31T02:18:13;5.50;;;2.20;;
70866;SDS011;58487;53.474;49.470;2023-03-31T02:20:44;4.47;;;1.67;;
70866;SDS011;58487;53.474;49.470;2023-03-31T02:23:14;5.25;;;2.15;;
70866;SDS011;58487;53.474;49.470;2023-03-31T02:25:50;5.50;;;2.00;;
70866;SDS011;58487;53.474;49.470;2023-03-31T02:28:24;6.80;;;2.03;;
70866;SDS011;58487;53.474;49.470;2023-03-31T02:30:57;7.45;;;1.88;;
70866;SDS011;58487;53.474;49.470;2023-03-31T02:33:28;6.77;;;2.07;;
70866;SDS011;58487;53.474;49.470;2023-03-31T02:35:54;6.03;;;2.22;;
70866;SDS011;58487;53.474;49.470;2023-03-31T02:38:20;6.00;;;2.38;;
70866;SDS011;58487;53.474;49.470;2023-03-31T02:40:47;8.02;;;1.90;;
70866;SDS011;58487;53.474;49.470;2023-03-31T02:43:13;6.32;;;1.92;;
70866;SDS011;58487;53.474;49.470;2023-03-31T03:05:11;5.35;;;1.95;;
70866;SDS011;58487;53.474;49.470;2023-03-31T03:15:49;6.15;;;2.30;;
70866;SDS011;58487;53.474;49.470;2023-03-31T03:18:23;5.07;;;1.88;;
70866;SDS011;58487;53.474;49.470;2023-03-31T03:20:49;13.05;;;3.95;;
70866;SDS011;58487;53.474;49.470;2023-03-31T03:23:15;4.88;;;1.67;;
70866;SDS011;58487;53.474;49.470;2023-03-31T03:25:42;6.40;;;2.00;;
70866;SDS011;58487;53.474;49.470;2023-03-31T03:28:10;6.50;;;2.28;;
70866;SDS011;58487;53.474;49.470;2023-03-31T03:30:36;6.75;;;2.22;;
70866;SDS011;58487;53.474;49.470;2023-03-31T03:33:03;7.70;;;2.35;;
70866;SDS011;58487;53.474;49.470;2023-03-31T03:35:31;7.38;;;2.13;;
70866;SDS011;58487;53.474;49.470;2023-03-31T03:37:58;7.77;;;2.30;;
70866;SDS011;58487;53.474;49.470;2023-03-31T03:40:24;6.97;;;2.20;;
70866;SDS011;58487;53.474;49.470;2023-03-31T03:42:51;6.50;;;2.03;;
70866;SDS011;58487;53.474;49.470;2023-03-31T03:45:17;6.68;;;2.50;;
70866;SDS011;58487;53.474;49.470;2023-03-31T03:47:43;6.22;;;2.60;;
70866;SDS011;58487;53.474;49.470;2023-03-31T03:50:11;7.20;;;2.77;;
70866;SDS011;58487;53.474;49.470;2023-03-31T03:52:38;11.07;;;2.80;;
70866;SDS011;58487;53.474;49.470;2023-03-31T03:55:05;6.25;;;2.70;;
70866;SDS011;58487;53.474;49.470;2023-03-31T03:57:31;9.77;;;2.08;;
70866;SDS011;58487;53.474;49.470;2023-03-31T03:59:57;6.40;;;2.40;;
70866;SDS011;58487;53.474;49.470;2023-03-31T04:02:24;7.37;;;2.30;;
70866;SDS011;58487;53.474;49.470;2023-03-31T04:05:07;6.15;;;2.47;;
70866;SDS011;58487;53.474;49.470;2023-03-31T04:07:33;7.00;;;2.63;;
70866;SDS011;58487;53.474;49.470;2023-03-31T04:09:59;5.72;;;2.20;;
70866;SDS011;58487;53.474;49.470;2023-03-31T04:12:26;5.75;;;2.80;;
70866;SDS011;58487;53.474;49.470;2023-03-31T04:14:52;6.43;;;2.17;;
70866;SDS011;58487;53.474;49.470;2023-03-31T04:17:18;4.78;;;1.90;;
70866;SDS011;58487;53.474;49.470;2023-03-31T04:19:58;6.72;;;2.35;;
70866;SDS011;58487;53.474;49.470;2023-03-31T04:22:33;10.77;;;3.22;;
70866;SDS011;58487;53.474;49.470;2023-03-31T04:25:05;12.35;;;4.63;;
70866;SDS011;58487;53.474;49.470;2023-03-31T04:27:50;9.00;;;3.80;;
70866;SDS011;58487;53.474;49.470;2023-03-31T04:30:23;9.48;;;3.75;;
70866;SDS011;58487;53.474;49.470;2023-03-31T04:32:56;10.32;;;2.88;;
70866;SDS011;58487;53.474;49.470;2023-03-31T04:35:25;7.53;;;2.60;;
70866;SDS011;58487;53.474;49.470;2023-03-31T04:37:52;5.95;;;2.50;;
70866;SDS011;58487;53.474;49.470;2023-03-31T04:40:23;7.23;;;2.90;;
70866;SDS011;58487;53.474;49.470;2023-03-31T04:42:50;9.02;;;2.60;;
70866;SDS011;58487;53.474;49.470;2023-03-31T04:45:16;5.75;;;2.47;;
70866;SDS011;58487;53.474;49.470;2023-03-31T04:47:43;6.53;;;2.40;;
70866;SDS011;58487;53.474;49.470;2023-03-31T04:50:09;9.10;;;2.60;;
70866;SDS011;58487;53.474;49.470;2023-03-31T04:52:36;6.90;;;2.50;;
70866;SDS011;58487;53.474;49.470;2023-03-31T04:55:03;8.07;;;2.20;;
70866;SDS011;58487;53.474;49.470;2023-03-31T04:57:30;5.00;;;2.33;;
70866;SDS011;58487;53.474;49.470;2023-03-31T04:59:56;7.03;;;2.30;;
70866;SDS011;58487;53.474;49.470;2023-03-31T05:02:22;5.07;;;2.20;;
70866;SDS011;58487;53.474;49.470;2023-03-31T05:04:49;5.83;;;2.33;;
70866;SDS011;58487;53.474;49.470;2023-03-31T05:07:16;7.30;;;2.60;;
70866;SDS011;58487;53.474;49.470;2023-03-31T05:09:43;7.75;;;2.47;;
70866;SDS011;58487;53.474;49.470;2023-03-31T05:12:11;7.47;;;2.88;;
70866;SDS011;58487;53.474;49.470;2023-03-31T05:14:37;7.80;;;3.15;;
70866;SDS011;58487;53.474;49.470;2023-03-31T05:17:03;7.03;;;2.60;;
70866;SDS011;58487;53.474;49.470;2023-03-31T05:19:29;8.23;;;2.60;;
70866;SDS011;58487;53.474;49.470;2023-03-31T05:21:56;7.13;;;2.47;;
70866;SDS011;58487;53.474;49.470;2023-03-31T05:24:22;6.70;;;2.78;;
70866;SDS011;58487;53.474;49.470;2023-03-31T05:26:48;6.47;;;2.53;;
70866;SDS011;58487;53.474;49.470;2023-03-31T05:29:17;5.97;;;2.57;;
70866;SDS011;58487;53.474;49.470;2023-03-31T05:31:44;7.50;;;3.00;;
70866;SDS011;58487;53.474;49.470;2023-03-31T05:34:10;7.93;;;2.60;;
70866;SDS011;58487;53.474;49.470;2023-03-31T05:36:36;5.93;;;2.30;;
70866;SDS011;58487;53.474;49.470;2023-03-31T05:39:06;5.45;;;1.98;;
70866;SDS011;58487;53.474;49.470;2023-03-31T05:41:33;4.87;;;1.53;;
70866;SDS011;58487;53.474;49.470;2023-03-31T05:43:59;4.75;;;1.90;;
70866;SDS011;58487;53.474;49.470;2023-03-31T05:46:29;6.03;;;1.77;;
70866;SDS011;58487;53.474;49.470;2023-03-31T05:48:55;5.50;;;2.13;;
70866;SDS011;58487;53.474;49.470;2023-03-31T05:51:21;5.70;;;2.47;;
70866;SDS011;58487;53.474;49.470;2023-03-31T05:53:47;6.67;;;2.50;;
70866;SDS011;58487;53.474;49.470;2023-03-31T05:56:13;7.28;;;2.60;;
70866;SDS011;58487;53.474;49.470;2023-03-31T05:58:40;7.18;;;2.60;;
70866;SDS011;58487;53.474;49.470;2023-03-31T06:01:07;7.45;;;2.80;;
70866;SDS011;58487;53.474;49.470;2023-03-31T06:03:35;6.00;;;2.50;;
70866;SDS011;58487;53.474;49.470;2023-03-31T06:06:03;8.47;;;2.30;;
70866;SDS011;58487;53.474;49.470;2023-03-31T06:08:33;5.03;;;2.03;;
70866;SDS011;58487;53.474;49.470;2023-03-31T06:10:59;6.30;;;2.40;;
70866;SDS011;58487;53.474;49.470;2023-03-31T06:13:29;6.18;;;2.55;;
70866;SDS011;58487;53.474;49.470;2023-03-31T06:15:56;4.97;;;2.17;;
70866;SDS011;58487;53.474;49.470;2023-03-31T06:18:23;7.72;;;2.20;;
70866;SDS011;58487;53.474;49.470;2023-03-31T06:20:53;5.65;;;2.45;;
70866;SDS011;58487;53.474;49.470;2023-03-31T06:23:20;6.72;;;2.58;;
70866;SDS011;58487;53.474;49.470;2023-03-31T06:25:47;5.95;;;2.22;;
70866;SDS011;58487;53.474;49.470;2023-03-31T06:28:13;8.63;;;2.53;;
70866;SDS011;58487;53.474;49.470;2023-03-31T06:30:39;8.05;;;2.50;;
70866;SDS011;58487;53.474;49.470;2023-03-31T06:33:05;9.05;;;2.50;;
70866;SDS011;58487;53.474;49.470;2023-03-31T06:35:31;6.75;;;2.25;;
70866;SDS011;58487;53.474;49.470;2023-03-31T06:37:57;7.55;;;2.70;;
70866;SDS011;58487;53.474;49.470;2023-03-31T06:40:23;6.47;;;2.37;;
70866;SDS011;58487;53.474;49.470;2023-03-31T06:42:49;10.15;;;2.67;;
70866;SDS011;58487;53.474;49.470;2023-03-31T06:45:15;6.75;;;2.60;;
70866;SDS011;58487;53.474;49.470;2023-03-31T06:47:41;8.88;;;3.03;;
70866;SDS011;58487;53.474;49.470;2023-03-31T06:50:08;6.65;;;2.72;;
70866;SDS011;58487;53.474;49.470;2023-03-31T06:52:35;7.67;;;3.03;;
70866;SDS011;58487;53.474;49.470;2023-03-31T06:55:01;9.10;;;3.20;;
70866;SDS011;58487;53.474;49.470;2023-03-31T06:57:27;6.18;;;3.00;;
70866;SDS011;58487;53.474;49.470;2023-03-31T06:59:55;7.30;;;3.00;;
70866;SDS011;58487;53.474;49.470;2023-03-31T07:02:21;7.28;;;3.13;;
70866;SDS011;58487;53.474;49.470;2023-03-31T07:04:47;8.20;;;2.87;;
70866;SDS011;58487;53.474;49.470;2023-03-31T07:07:13;7.93;;;3.35;;
70866;SDS011;58487;53.474;49.470;2023-03-31T07:09:39;9.60;;;3.25;;
70866;SDS011;58487;53.474;49.470;2023-03-31T07:12:05;8.82;;;3.38;;
70866;SDS011;58487;53.474;49.470;2023-03-31T07:14:31;9.23;;;3.30;;
70866;SDS011;58487;53.474;49.470;2023-03-31T07:16:58;6.40;;;3.03;;
70866;SDS011;58487;53.474;49.470;2023-03-31T07:19:24;7.93;;;3.00;;
70866;SDS011;58487;53.474;49.470;2023-03-31T07:21:50;6.90;;;3.15;;
70866;SDS011;58487;53.474;49.470;2023-03-31T07:24:17;7.68;;;3.40;;
70866;SDS011;58487;53.474;49.470;2023-03-31T07:26:43;9.23;;;3.03;;
70866;SDS011;58487;53.474;49.470;2023-03-31T07:29:09;8.20;;;3.47;;
70866;SDS011;58487;53.474;49.470;2023-03-31T07:31:35;9.13;;;3.17;;
70866;SDS011;58487;53.474;49.470;2023-03-31T07:34:02;12.38;;;3.75;;
70866;SDS011;58487;53.474;49.470;2023-03-31T07:36:28;11.93;;;3.40;;
70866;SDS011;58487;53.474;49.470;2023-03-31T07:38:55;7.47;;;3.00;;
70866;SDS011;58487;53.474;49.470;2023-03-31T07:41:21;9.65;;;3.47;;
70866;SDS011;58487;53.474;49.470;2023-03-31T07:43:48;9.60;;;3.72;;
70866;SDS011;58487;53.474;49.470;2023-03-31T07:46:16;9.13;;;3.42;;
70866;SDS011;58487;53.474;49.470;2023-03-31T07:48:45;8.13;;;3.37;;
70866;SDS011;58487;53.474;49.470;2023-03-31T07:51:12;9.93;;;3.30;;
70866;SDS011;58487;53.474;49.470;2023-03-31T07:53:40;7.60;;;3.10;;
70866;SDS011;58487;53.474;49.470;2023-03-31T07:56:06;8.48;;;3.25;;
70866;SDS011;58487;53.474;49.470;2023-03-31T07:58:32;13.00;;;4.43;;
70866;SDS011;58487;53.474;49.470;2023-03-31T08:00:58;11.93;;;5.33;;
70866;SDS011;58487;53.474;49.470;2023-03-31T08:03:25;9.20;;;4.05;;
70866;SDS011;58487;53.474;49.470;2023-03-31T08:05:51;9.55;;;3.60;;
70866;SDS011;58487;53.474;49.470;2023-03-31T08:08:18;7.82;;;3.65;;
70866;SDS011;58487;53.474;49.470;2023-03-31T08:10:44;7.65;;;3.53;;
70866;SDS011;58487;53.474;49.470;2023-03-31T08:13:11;8.30;;;3.23;;
70866;SDS011;58487;53.474;49.470;2023-03-31T08:15:37;8.85;;;3.83;;
70866;SDS011;58487;53.474;49.470;2023-03-31T08:18:03;10.93;;;4.50;;
70866;SDS011;58487;53.474;49.470;2023-03-31T08:20:30;11.10;;;4.18;;
70866;SDS011;58487;53.474;49.470;2023-03-31T08:22:56;10.07;;;3.65;;
70866;SDS011;58487;53.474;49.470;2023-03-31T08:25:22;8.90;;;4.47;;
70866;SDS011;58487;53.474;49.470;2023-03-31T08:27:48;8.35;;;3.92;;
70866;SDS011;58487;53.474;49.470;2023-03-31T08:30:18;12.80;;;4.63;;
70866;SDS011;58487;53.474;49.470;2023-03-31T08:32:44;11.95;;;4.22;;
70866;SDS011;58487;53.474;49.470;2023-03-31T08:35:11;9.95;;;3.92;;
70866;SDS011;58487;53.474;49.470;2023-03-31T08:37:37;9.27;;;4.23;;
70866;SDS011;58487;53.474;49.470;2023-03-31T08:40:04;10.65;;;4.32;;
70866;SDS011;58487;53.474;49.470;2023-03-31T08:47:56;8.73;;;3.95;;
70866;SDS011;58487;53.474;49.470;2023-03-31T08:50:29;9.77;;;4.13;;
70866;SDS011;58487;53.474;49.470;2023-03-31T08:53:01;12.02;;;4.45;;
70866;SDS011;58487;53.474;49.470;2023-03-31T08:56:02;9.70;;;4.78;;
70866;SDS011;58487;53.474;49.470;2023-03-31T08:58:35;11.90;;;4.55;;
70866;SDS011;58487;53.474;49.470;2023-03-31T09:01:13;12.05;;;4.47;;
70866;SDS011;58487;53.474;49.470;2023-03-31T09:06:28;11.70;;;4.93;;
70866;SDS011;58487;53.474;49.470;2023-03-31T09:08:58;11.00;;;6.15;;
70866;SDS011;58487;53.474;49.470;2023-03-31T09:14:43;10.80;;;5.30;;
70866;SDS011;58487;53.474;49.470;2023-03-31T09:17:26;8.93;;;4.77;;
70866;SDS011;58487;53.474;49.470;2023-03-31T09:20:06;9.13;;;4.40;;
70866;SDS011;58487;53.474;49.470;2023-03-31T09:22:39;13.73;;;5.45;;
70866;SDS011;58487;53.474;49.470;2023-03-31T09:25:22;11.32;;;5.35;;
70866;SDS011;58487;53.474;49.470;2023-03-31T09:27:52;12.75;;;5.20;;
70866;SDS011;58487;53.474;49.470;2023-03-31T09:30:28;12.70;;;5.40;;
70866;SDS011;58487;53.474;49.470;2023-03-31T09:33:18;13.88;;;5.40;;
70866;SDS011;58487;53.474;49.470;2023-03-31T09:35:59;16.42;;;6.30;;
70866;SDS011;58487;53.474;49.470;2023-03-31T09:38:26;13.80;;;6.60;;
70866;SDS011;58487;53.474;49.470;2023-03-31T09:40:55;13.98;;;6.60;;
70866;SDS011;58487;53.474;49.470;2023-03-31T09:43:23;13.40;;;6.73;;
70866;SDS011;58487;53.474;49.470;2023-03-31T09:45:52;13.13;;;6.35;;
70866;SDS011;58487;53.474;49.470;2023-03-31T09:48:19;13.07;;;6.57;;
70866;SDS011;58487;53.474;49.470;2023-03-31T09:50:49;13.50;;;6.97;;
70866;SDS011;58487;53.474;49.470;2023-03-31T09:53:42;14.20;;;6.93;;
70866;SDS011;58487;53.474;49.470;2023-03-31T09:56:13;14.30;;;7.30;;
70866;SDS011;58487;53.474;49.470;2023-03-31T09:59:15;14.25;;;7.18;;
70866;SDS011;58487;53.474;49.470;2023-03-31T10:01:46;13.05;;;7.25;;
70866;SDS011;58487;53.474;49.470;2023-03-31T10:04:24;13.63;;;6.78;;
70866;SDS011;58487;53.474;49.470;2023-03-31T10:06:53;11.95;;;6.05;;
70866;SDS011;58487;53.474;49.470;2023-03-31T10:09:20;15.63;;;6.33;;
70866;SDS011;58487;53.474;49.470;2023-03-31T10:11:51;18.90;;;6.40;;
70866;SDS011;58487;53.474;49.470;2023-03-31T10:14:23;12.90;;;6.25;;
70866;SDS011;58487;53.474;49.470;2023-03-31T10:16:52;12.07;;;6.22;;
70866;SDS011;58487;53.474;49.470;2023-03-31T10:19:21;11.95;;;6.38;;
70866;SDS011;58487;53.474;49.470;2023-03-31T10:24:22;13.80;;;6.93;;
70866;SDS011;58487;53.474;49.470;2023-03-31T10:26:49;12.70;;;6.50;;
70866;SDS011;58487;53.474;49.470;2023-03-31T10:29:28;11.05;;;6.13;;
70866;SDS011;58487;53.474;49.470;2023-03-31T10:32:01;12.68;;;6.28;;
70866;SDS011;58487;53.474;49.470;2023-03-31T10:34:43;12.53;;;6.77;;
70866;SDS011;58487;53.474;49.470;2023-03-31T10:37:11;13.02;;;6.20;;
70866;SDS011;58487;53.474;49.470;2023-03-31T10:39:42;15.35;;;7.90;;
70866;SDS011;58487;53.474;49.470;2023-03-31T10:42:22;14.55;;;7.38;;
70866;SDS011;58487;53.474;49.470;2023-03-31T10:44:49;13.10;;;6.38;;
70866;SDS011;58487;53.474;49.470;2023-03-31T10:47:34;12.47;;;6.70;;
70866;SDS011;58487;53.474;49.470;2023-03-31T10:50:05;12.13;;;6.70;;
70866;SDS011;58487;53.474;49.470;2023-03-31T10:52:47;14.88;;;6.68;;
70866;SDS011;58487;53.474;49.470;2023-03-31T10:55:16;12.05;;;6.72;;
70866;SDS011;58487;53.474;49.470;2023-03-31T10:58:00;12.70;;;6.75;;
70866;SDS011;58487;53.474;49.470;2023-03-31T11:06:12;12.15;;;6.10;;
70866;SDS011;58487;53.474;49.470;2023-03-31T11:14:20;10.37;;;5.63;;
70866;SDS011;58487;53.474;49.470;2023-03-31T11:20:27;9.85;;;5.38;;
70866;SDS011;58487;53.474;49.470;2023-03-31T11:23:20;8.70;;;5.05;;
70866;SDS011;58487;53.474;49.470;2023-03-31T11:25:58;9.07;;;5.35;;
70866;SDS011;58487;53.474;49.470;2023-03-31T11:31:56;8.30;;;5.20;;
70866;SDS011;58487;53.474;49.470;2023-03-31T11:42:17;8.77;;;4.63;;
70866;SDS011;58487;53.474;49.470;2023-03-31T11:44:51;11.70;;;5.53;;
70866;SDS011;58487;53.474;49.470;2023-03-31T11:47:24;10.20;;;6.25;;
70866;SDS011;58487;53.474;49.470;2023-03-31T11:50:16;9.93;;;4.85;;
70866;SDS011;58487;53.474;49.470;2023-03-31T11:52:59;10.10;;;5.85;;
70866;SDS011;58487;53.474;49.470;2023-03-31T11:55:28;9.57;;;5.27;;
70866;SDS011;58487;53.474;49.470;2023-03-31T12:00:45;12.27;;;6.28;;
70866;SDS011;58487;53.474;49.470;2023-03-31T12:05:51;10.85;;;5.68;;
70866;SDS011;58487;53.474;49.470;2023-03-31T12:10:54;9.80;;;5.13;;
70866;SDS011;58487;53.474;49.470;2023-03-31T12:16:05;7.90;;;4.88;;
70866;SDS011;58487;53.474;49.470;2023-03-31T12:19:12;10.32;;;5.72;;
70866;SDS011;58487;53.474;49.470;2023-03-31T12:21:33;11.67;;;6.07;;
70866;SDS011;58487;53.474;49.470;2023-03-31T12:24:02;13.15;;;5.68;;
70866;SDS011;58487;53.474;49.470;2023-03-31T12:26:39;8.52;;;5.28;;
70866;SDS011;58487;53.474;49.470;2023-03-31T12:29:11;9.48;;;5.47;;
70866;SDS011;58487;53.474;49.470;2023-03-31T12:31:47;10.05;;;4.60;;
70866;SDS011;58487;53.474;49.470;2023-03-31T12:34:15;7.90;;;4.13;;
70866;SDS011;58487;53.474;49.470;2023-03-31T12:39:37;9.40;;;4.97;;
70866;SDS011;58487;53.474;49.470;2023-03-31T12:48:08;4.80;;;2.10;;
70866;SDS011;58487;53.474;49.470;2023-03-31T12:56:11;7.00;;;3.28;;
70866;SDS011;58487;53.474;49.470;2023-03-31T12:58:38;5.25;;;2.55;;
70866;SDS011;58487;53.474;49.470;2023-03-31T13:11:39;5.30;;;2.30;;
70866;SDS011;58487;53.474;49.470;2023-03-31T13:14:27;5.30;;;2.10;;
70866;SDS011;58487;53.474;49.470;2023-03-31T13:28:39;5.90;;;2.83;;
70866;SDS011;58487;53.474;49.470;2023-03-31T13:31:04;5.10;;;2.17;;
70866;SDS011;58487;53.474;49.470;2023-03-31T13:38:57;6.28;;;2.78;;
70866;SDS011;58487;53.474;49.470;2023-03-31T13:57:43;9.05;;;4.50;;
70866;SDS011;58487;53.474;49.470;2023-03-31T14:09:05;8.07;;;4.40;;
70866;SDS011;58487;53.474;49.470;2023-03-31T14:11:35;8.50;;;4.00;;
70866;SDS011;58487;53.474;49.470;2023-03-31T14:16:39;9.85;;;5.65;;
70866;SDS011;58487;53.474;49.470;2023-03-31T14:38:27;9.48;;;4.80;;
70866;SDS011;58487;53.474;49.470;2023-03-31T14:40:55;10.15;;;4.82;;
70866;SDS011;58487;53.474;49.470;2023-03-31T14:43:26;10.13;;;5.65;;
70866;SDS011;58487;53.474;49.470;2023-03-31T14:46:05;9.48;;;4.90;;
70866;SDS011;58487;53.474;49.470;2023-03-31T14:48:34;9.17;;;4.63;;
70866;SDS011;58487;53.474;49.470;2023-03-31T14:51:10;8.40;;;4.22;;
70866;SDS011;58487;53.474;49.470;2023-03-31T14:53:36;9.00;;;4.50;;
70866;SDS011;58487;53.474;49.470;2023-03-31T14:56:04;9.02;;;4.40;;
70866;SDS011;58487;53.474;49.470;2023-03-31T14:58:44;8.35;;;4.20;;
70866;SDS011;58487;53.474;49.470;2023-03-31T15:01:17;8.63;;;4.17;;
70866;SDS011;58487;53.474;49.470;2023-03-31T15:03:48;9.48;;;4.70;;
70866;SDS011;58487;53.474;49.470;2023-03-31T15:06:15;9.15;;;3.95;;
70866;SDS011;58487;53.474;49.470;2023-03-31T15:08:41;10.07;;;4.10;;
70866;SDS011;58487;53.474;49.470;2023-03-31T15:11:11;9.18;;;4.55;;
70866;SDS011;58487;53.474;49.470;2023-03-31T15:13:41;8.50;;;4.10;;
70866;SDS011;58487;53.474;49.470;2023-03-31T15:16:29;9.30;;;4.82;;
70866;SDS011;58487;53.474;49.470;2023-03-31T15:18:59;8.70;;;4.63;;
70866;SDS011;58487;53.474;49.470;2023-03-31T15:21:30;9.80;;;5.90;;
70866;SDS011;58487;53.474;49.470;2023-03-31T15:24:02;9.27;;;4.72;;
70866;SDS011;58487;53.474;49.470;2023-03-31T15:26:30;9.13;;;4.37;;
70866;SDS011;58487;53.474;49.470;2023-03-31T15:29:23;8.77;;;4.78;;
70866;SDS011;58487;53.474;49.470;2023-03-31T15:31:50;8.15;;;4.13;;
70866;SDS011;58487;53.474;49.470;2023-03-31T15:34:20;6.15;;;2.78;;
70866;SDS011;58487;53.474;49.470;2023-03-31T15:36:52;8.60;;;3.97;;
70866;SDS011;58487;53.474;49.470;2023-03-31T15:39:20;7.87;;;3.67;;
70866;SDS011;58487;53.474;49.470;2023-03-31T15:41:51;8.98;;;3.42;;
70866;SDS011;58487;53.474;49.470;2023-03-31T15:49:32;9.77;;;5.60;;
70866;SDS011;58487;53.474;49.470;2023-03-31T15:51:59;13.73;;;6.17;;
70866;SDS011;58487;53.474;49.470;2023-03-31T15:54:40;10.18;;;5.68;;
70866;SDS011;58487;53.474;49.470;2023-03-31T15:57:07;8.82;;;4.72;;
70866;SDS011;58487;53.474;49.470;2023-03-31T16:02:19;8.07;;;4.82;;
70866;SDS011;58487;53.474;49.470;2023-03-31T16:05:02;6.97;;;4.50;;
70866;SDS011;58487;53.474;49.470;2023-03-31T16:07:29;6.55;;;3.28;;
70866;SDS011;58487;53.474;49.470;2023-03-31T16:10:02;5.35;;;2.60;;
70866;SDS011;58487;53.474;49.470;2023-03-31T16:13:07;6.00;;;3.17;;
70866;SDS011;58487;53.474;49.470;2023-03-31T16:18:38;4.40;;;2.27;;
70866;SDS011;58487;53.474;49.470;2023-03-31T16:21:08;5.07;;;2.13;;
70866;SDS011;58487;53.474;49.470;2023-03-31T16:23:38;4.10;;;1.90;;
70866;SDS011;58487;53.474;49.470;2023-03-31T16:26:06;5.60;;;1.60;;
70866;SDS011;58487;53.474;49.470;2023-03-31T16:28:34;3.67;;;1.40;;
70866;SDS011;58487;53.474;49.470;2023-03-31T16:31:02;4.70;;;2.23;;
70866;SDS011;58487;53.474;49.470;2023-03-31T16:33:31;6.00;;;1.90;;
70866;SDS011;58487;53.474;49.470;2023-03-31T16:36:17;3.92;;;1.67;;
70866;SDS011;58487;53.474;49.470;2023-03-31T16:38:43;8.52;;;2.10;;
70866;SDS011;58487;53.474;49.470;2023-03-31T16:41:11;4.13;;;1.90;;
70866;SDS011;58487;53.474;49.470;2023-03-31T16:43:40;4.40;;;1.77;;
70866;SDS011;58487;53.474;49.470;2023-03-31T16:46:10;3.90;;;1.70;;
70866;SDS011;58487;53.474;49.470;2023-03-31T16:48:36;4.22;;;2.00;;
70866;SDS011;58487;53.474;49.470;2023-03-31T16:51:02;4.50;;;1.95;;
70866;SDS011;58487;53.474;49.470;2023-03-31T16:53:30;4.65;;;1.88;;
70866;SDS011;58487;53.474;49.470;2023-03-31T16:56:02;6.07;;;2.20;;
70866;SDS011;58487;53.474;49.470;2023-03-31T16:58:32;3.97;;;1.90;;
70866;SDS011;58487;53.474;49.470;2023-03-31T17:01:00;5.55;;;1.90;;
70866;SDS011;58487;53.474;49.470;2023-03-31T17:03:27;4.53;;;2.22;;
70866;SDS011;58487;53.474;49.470;2023-03-31T17:05:54;4.72;;;2.25;;
70866;SDS011;58487;53.474;49.470;2023-03-31T17:08:22;4.93;;;2.20;;
70866;SDS011;58487;53.474;49.470;2023-03-31T17:10:54;4.80;;;2.17;;
70866;SDS011;58487;53.474;49.470;2023-03-31T17:13:25;5.20;;;2.30;;
70866;SDS011;58487;53.474;49.470;2023-03-31T17:15:52;4.82;;;2.42;;
70866;SDS011;58487;53.474;49.470;2023-03-31T17:18:19;5.60;;;2.47;;
70866;SDS011;58487;53.474;49.470;2023-03-31T17:20:46;6.23;;;3.10;;
70866;SDS011;58487;53.474;49.470;2023-03-31T17:23:12;10.40;;;2.50;;
70866;SDS011;58487;53.474;49.470;2023-03-31T17:25:45;7.03;;;2.40;;
70866;SDS011;58487;53.474;49.470;2023-03-31T17:28:13;5.53;;;2.40;;
70866;SDS011;58487;53.474;49.470;2023-03-31T17:30:39;4.78;;;2.35;;
70866;SDS011;58487;53.474;49.470;2023-03-31T17:33:09;6.13;;;2.70;;
70866;SDS011;58487;53.474;49.470;2023-03-31T17:35:36;4.97;;;2.15;;
70866;SDS011;58487;53.474;49.470;2023-03-31T17:38:02;5.25;;;2.20;;
70866;SDS011;58487;53.474;49.470;2023-03-31T17:40:29;5.28;;;1.92;;
70866;SDS011;58487;53.474;49.470;2023-03-31T17:42:59;7.03;;;2.30;;
70866;SDS011;58487;53.474;49.470;2023-03-31T17:45:27;8.10;;;1.90;;
70866;SDS011;58487;53.474;49.470;2023-03-31T17:47:55;4.32;;;1.90;;
70866;SDS011;58487;53.474;49.470;2023-03-31T17:50:21;4.28;;;1.90;;
70866;SDS011;58487;53.474;49.470;2023-03-31T17:52:47;4.80;;;2.20;;
70866;SDS011;58487;53.474;49.470;2023-03-31T17:55:13;4.03;;;1.83;;
70866;SDS011;58487;53.474;49.470;2023-03-31T17:57:40;6.33;;;1.80;;
70866;SDS011;58487;53.474;49.470;2023-03-31T18:00:06;4.55;;;1.90;;
70866;SDS011;58487;53.474;49.470;2023-03-31T18:02:37;6.57;;;2.00;;
70866;SDS011;58487;53.474;49.470;2023-03-31T18:05:04;6.63;;;2.10;;
70866;SDS011;58487;53.474;49.470;2023-03-31T18:07:32;4.53;;;1.95;;
70866;SDS011;58487;53.474;49.470;2023-03-31T18:10:00;4.30;;;1.90;;